createdAt,value
2019-04-03T00:00:38.308Z,82.26
2019-04-03T00:03:11.388Z,81.97
2019-04-03T00:05:44.872Z,81.87
2019-04-03T00:08:18.374Z,81.78
2019-04-03T00:10:50.223Z,81.84
2019-04-03T00:13:23.137Z,82.74
2019-04-03T00:15:57.485Z,82.45
2019-04-03T00:18:30.802Z,82.87
2019-04-03T00:21:03.462Z,83.40
2019-04-03T00:23:37.217Z,83.11
2019-04-03T00:26:11.185Z,83.85
2019-04-03T00:28:44.781Z,83.70
2019-04-03T00:31:18.754Z,84.23
2019-04-03T00:33:53.438Z,84.70
2019-04-03T00:36:26.966Z,85.22
2019-04-03T00:38:59.921Z,85.66
2019-04-03T00:41:33.599Z,86.32
2019-04-03T00:44:06.597Z,86.25
2019-04-03T00:46:40.015Z,87.31
2019-04-03T00:49:13.457Z,87.45
2019-04-03T00:51:44.927Z,86.96
2019-04-03T00:54:17.647Z,89.31
2019-04-03T00:56:50.159Z,89.71
2019-04-03T00:59:23.309Z,89.56
2019-04-03T01:01:56.572Z,88.70
2019-04-03T01:04:29.901Z,87.05
2019-04-03T01:07:02.384Z,87.07
2019-04-03T01:09:35.618Z,87.39
2019-04-03T01:12:07.934Z,87.46
2019-04-03T01:14:41.028Z,86.90
2019-04-03T01:17:14.619Z,89.53
2019-04-03T01:19:47.664Z,90.40
2019-04-03T01:22:21.073Z,87.03
2019-04-03T01:24:54.307Z,91.88
2019-04-03T01:27:28.369Z,89.45
2019-04-03T01:30:01.722Z,91.30
2019-04-03T01:32:33.149Z,90.25
2019-04-03T01:35:06.004Z,92.52
2019-04-03T01:37:37.770Z,91.36
2019-04-03T01:40:10.639Z,92.14
2019-04-03T01:42:42.042Z,91.82
2019-04-03T01:45:14.968Z,92.42
2019-04-03T01:47:47.004Z,92.93
2019-04-03T01:50:19.976Z,90.41
2019-04-03T01:52:53.019Z,90.81
2019-04-03T01:55:26.431Z,91.28
2019-04-03T01:58:00.586Z,92.61
2019-04-03T02:00:37.244Z,90.52
2019-04-03T02:03:10.932Z,91.51
2019-04-03T02:05:45.211Z,91.70
2019-04-03T02:08:18.601Z,91.34
2019-04-03T02:10:51.034Z,90.66
2019-04-03T02:13:23.753Z,90.35
2019-04-03T02:15:56.542Z,90.26
2019-04-03T02:18:29.708Z,90.66
2019-04-03T02:21:03.012Z,90.80
2019-04-03T02:23:36.884Z,91.99
2019-04-03T02:26:10.881Z,90.46
2019-04-03T02:28:44.967Z,89.46
2019-04-03T02:31:20.029Z,90.17
2019-04-03T02:33:54.279Z,90.66
2019-04-03T02:36:27.359Z,89.09
2019-04-03T02:39:00.654Z,90.06
2019-04-03T02:41:36.453Z,87.82
2019-04-03T02:44:09.571Z,92.24
2019-04-03T02:46:42.873Z,93.32
2019-04-03T02:49:16.462Z,94.33
2019-04-03T02:51:51.873Z,93.96
2019-04-03T02:54:34.784Z,93.81
2019-04-03T02:57:06.191Z,92.74
2019-04-03T02:59:39.932Z,91.91
2019-04-03T03:02:13.720Z,90.19
2019-04-03T03:04:47.200Z,90.78
2019-04-03T03:07:19.105Z,90.48
2019-04-03T03:09:52.817Z,90.40
2019-04-03T03:12:27.633Z,94.46
2019-04-03T03:15:02.696Z,92.18
2019-04-03T03:17:37.114Z,92.23
2019-04-03T03:20:11.176Z,94.96
2019-04-03T03:22:49.645Z,92.33
2019-04-03T03:25:21.996Z,94.06
2019-04-03T03:27:58.494Z,95.68
2019-04-03T03:30:44.377Z,97.21
2019-04-03T03:33:28.289Z,96.80
2019-04-03T03:35:46.844Z,98.79
2019-04-03T03:38:19.576Z,97.52
2019-04-03T03:40:54.065Z,97.48
2019-04-03T03:43:28.808Z,98.62
2019-04-03T03:46:04.292Z,99.31
2019-04-03T03:48:42.067Z,96.95
2019-04-03T03:51:14.922Z,96.76
2019-04-03T03:53:51.346Z,97.82
2019-04-03T03:56:25.291Z,98.63
2019-04-03T03:59:00.117Z,99.32
2019-04-03T04:01:34.338Z,98.75
2019-04-03T04:04:07.864Z,95.76
2019-04-03T04:06:39.470Z,96.16
2019-04-03T04:09:16.010Z,96.93
2019-04-03T04:11:49.743Z,98.15
2019-04-03T04:14:23.657Z,99.91
2019-04-03T04:17:01.593Z,96.85
2019-04-03T04:19:36.714Z,97.01
2019-04-03T04:22:10.034Z,97.37
2019-04-03T04:24:43.283Z,95.28
2019-04-03T04:27:14.877Z,98.55
2019-04-03T04:29:48.948Z,97.17
2019-04-03T04:32:23.461Z,96.98
2019-04-03T04:34:56.956Z,97.18
2019-04-03T04:37:28.687Z,97.77
2019-04-03T04:40:01.302Z,95.21
2019-04-03T04:42:35.395Z,94.16
2019-04-03T04:45:11.859Z,93.76
2019-04-03T04:47:46.545Z,94.78
2019-04-03T04:50:26.980Z,96.12
2019-04-03T04:53:00.975Z,94.54
2019-04-03T04:55:35.679Z,94.61
2019-04-03T04:58:09.893Z,95.61
2019-04-03T05:00:47.032Z,96.16
2019-04-03T05:03:21.685Z,96.21
2019-04-03T05:05:57.269Z,98.00
2019-04-03T05:08:30.837Z,96.37
2019-04-03T05:11:07.556Z,99.16
2019-04-03T05:13:41.716Z,99.44
2019-04-03T05:16:13.455Z,100.00
2019-04-03T05:18:46.162Z,99.07
2019-04-03T05:21:21.411Z,100.00
2019-04-03T05:23:56.103Z,100.00
2019-04-03T05:26:31.931Z,100.00
2019-04-03T05:29:05.035Z,100.00
2019-04-03T05:31:39.062Z,100.00
2019-04-03T05:34:13.300Z,100.00
2019-04-03T05:36:48.552Z,100.00
2019-04-03T05:39:24.157Z,100.00
2019-04-03T05:41:59.585Z,100.00
2019-04-03T05:44:33.816Z,100.00
2019-04-03T05:47:08.465Z,100.00
2019-04-03T05:49:42.106Z,100.00
2019-04-03T05:52:15.555Z,100.00
2019-04-03T05:54:46.701Z,100.00
2019-04-03T05:57:19.388Z,100.00
2019-04-03T05:59:59.463Z,100.00
2019-04-03T06:02:28.733Z,100.00
2019-04-03T06:05:02.328Z,100.00
2019-04-03T06:07:37.781Z,100.00
2019-04-03T06:10:11.589Z,100.00
2019-04-03T06:12:46.055Z,100.00
2019-04-03T06:15:21.707Z,100.00
2019-04-03T06:17:55.825Z,100.00
2019-04-03T06:20:30.683Z,100.00
2019-04-03T06:23:10.218Z,100.00
2019-04-03T06:25:44.813Z,100.00
2019-04-03T06:28:17.557Z,100.00
2019-04-03T06:30:51.292Z,100.00
2019-04-03T06:33:24.917Z,98.57
2019-04-03T06:35:58.590Z,98.60
2019-04-03T06:38:31.598Z,100.00
2019-04-03T06:41:08.362Z,99.94
2019-04-03T06:43:41.684Z,99.21
2019-04-03T06:46:15.848Z,95.02
2019-04-03T06:48:48.620Z,94.76
2019-04-03T06:51:22.397Z,95.37
2019-04-03T06:53:58.687Z,96.09
2019-04-03T06:56:31.036Z,93.85
2019-04-03T06:59:02.489Z,94.45
2019-04-03T07:01:38.740Z,94.65
2019-04-03T07:04:12.467Z,94.06
2019-04-03T07:06:49.844Z,93.09
2019-04-03T07:09:33.800Z,92.00
2019-04-03T07:11:59.095Z,91.38
2019-04-03T07:14:32.815Z,87.27
2019-04-03T07:17:06.072Z,86.04
2019-04-03T07:19:40.290Z,84.45
2019-04-03T07:22:14.562Z,83.09
2019-04-03T07:24:48.585Z,81.05
2019-04-03T07:27:22.392Z,81.39
2019-04-03T07:29:56.375Z,78.92
2019-04-03T07:32:29.653Z,79.61
2019-04-03T07:35:05.192Z,78.95
2019-04-03T07:37:38.920Z,77.99
2019-04-03T07:40:12.554Z,76.12
2019-04-03T07:42:45.920Z,76.46
2019-04-03T07:45:21.388Z,74.98
2019-04-03T07:47:55.684Z,74.32
2019-04-03T07:50:27.855Z,73.46
2019-04-03T07:53:00.801Z,70.69
2019-04-03T07:55:37.083Z,71.76
2019-04-03T07:58:11.852Z,70.15
2019-04-03T08:00:45.744Z,68.79
2019-04-03T08:03:20.705Z,67.93
2019-04-03T08:05:56.714Z,68.21
2019-04-03T08:08:34.336Z,67.48
2019-04-03T08:11:10.374Z,66.86
2019-04-03T08:13:44.344Z,67.02
2019-04-03T08:16:18.051Z,66.78
2019-04-03T08:18:52.511Z,66.30
2019-04-03T08:21:25.207Z,66.01
2019-04-03T08:23:58.668Z,65.49
2019-04-03T08:26:32.854Z,65.23
2019-04-03T08:29:05.824Z,64.95
2019-04-03T08:31:44.310Z,64.31
2019-04-03T08:34:18.872Z,63.93
2019-04-03T08:36:53.203Z,65.01
2019-04-03T08:39:26.392Z,64.08
2019-04-03T08:41:59.269Z,64.62
2019-04-03T08:44:33.865Z,63.36
2019-04-03T08:47:10.229Z,62.71
2019-04-03T08:49:44.308Z,62.85
2019-04-03T08:52:19.318Z,62.82
2019-04-03T08:54:52.639Z,62.77
2019-04-03T08:57:30.657Z,61.54
2019-04-03T09:00:06.093Z,62.25
2019-04-03T09:02:42.483Z,61.89
2019-04-03T09:05:18.963Z,62.39
2019-04-03T09:07:50.817Z,62.31
2019-04-03T09:10:21.847Z,61.33
2019-04-03T09:12:56.744Z,61.45
2019-04-03T09:15:30.961Z,61.89
2019-04-03T09:18:06.442Z,61.04
2019-04-03T09:20:39.010Z,59.96
2019-04-03T09:23:14.825Z,59.21
2019-04-03T09:25:48.180Z,59.38
2019-04-03T09:28:21.139Z,59.53
2019-04-03T09:30:54.117Z,59.40
2019-04-03T09:33:29.762Z,59.80
2019-04-03T09:36:04.533Z,58.86
2019-04-03T09:38:40.453Z,57.75
2019-04-03T09:41:15.331Z,57.06
2019-04-03T09:43:49.391Z,56.94
2019-04-03T09:46:23.111Z,56.53
2019-04-03T09:48:56.926Z,56.56
2019-04-03T09:51:33.003Z,56.08
2019-04-03T09:54:07.086Z,56.02
2019-04-03T09:56:57.197Z,56.21
2019-04-03T09:59:16.338Z,55.92
2019-04-03T10:01:49.554Z,56.02
2019-04-03T10:04:24.139Z,55.11
2019-04-03T10:07:02.022Z,54.09
2019-04-03T10:09:38.512Z,53.59
2019-04-03T10:12:11.356Z,52.72
2019-04-03T10:14:44.468Z,53.27
2019-04-03T10:17:17.845Z,52.03
2019-04-03T10:19:51.216Z,52.40
2019-04-03T10:22:26.334Z,51.47
2019-04-03T10:25:00.606Z,52.31
2019-04-03T10:27:34.674Z,52.13
2019-04-03T10:30:12.145Z,52.38
2019-04-03T10:32:47.933Z,52.02
2019-04-03T10:35:21.761Z,52.25
2019-04-03T10:37:57.787Z,52.03
2019-04-03T10:40:33.868Z,53.08
2019-04-03T10:43:06.784Z,52.99
2019-04-03T10:45:39.665Z,51.69
2019-04-03T10:48:14.446Z,51.17
2019-04-03T10:50:47.667Z,50.65
2019-04-03T10:53:24.608Z,50.12
2019-04-03T10:56:00.167Z,50.57
2019-04-03T10:58:34.841Z,50.53
2019-04-03T11:01:10.110Z,50.50
2019-04-03T11:03:42.923Z,50.06
2019-04-03T11:06:17.293Z,50.43
2019-04-03T11:08:53.268Z,51.93
2019-04-03T11:11:29.672Z,50.13
2019-04-03T11:14:06.626Z,49.83
2019-04-03T11:16:39.548Z,50.57
2019-04-03T11:19:14.894Z,49.30
2019-04-03T11:21:49.267Z,48.82
2019-04-03T11:24:23.405Z,48.88
2019-04-03T11:26:57.014Z,47.61
2019-04-03T11:29:30.635Z,47.65
2019-04-03T11:32:04.911Z,47.76
2019-04-03T11:34:38.025Z,47.56
2019-04-03T11:37:11.771Z,49.21
2019-04-03T11:39:46.246Z,47.43
2019-04-03T11:42:24.893Z,46.78
2019-04-03T11:44:55.152Z,48.11
2019-04-03T11:47:28.882Z,47.28
2019-04-03T11:50:01.418Z,47.76
2019-04-03T11:52:34.674Z,47.46
2019-04-03T11:55:11.195Z,46.77
2019-04-03T11:57:48.616Z,46.77
2019-04-03T12:00:26.796Z,47.28
2019-04-03T12:03:01.507Z,46.61
2019-04-03T12:05:35.220Z,46.92
2019-04-03T12:08:08.535Z,46.64
2019-04-03T12:10:46.046Z,46.33
2019-04-03T12:13:21.047Z,46.02
2019-04-03T12:15:57.510Z,45.97
2019-04-03T12:18:34.139Z,45.99
2019-04-03T12:21:07.435Z,45.22
2019-04-03T12:23:41.469Z,46.14
2019-04-03T12:26:16.910Z,45.51
2019-04-03T12:28:50.903Z,45.90
2019-04-03T12:31:24.782Z,45.76
2019-04-03T12:34:04.553Z,46.41
2019-04-03T12:36:33.661Z,46.35
2019-04-03T12:39:16.045Z,46.24
2019-04-03T12:41:49.358Z,46.17
2019-04-03T12:44:23.616Z,46.85
2019-04-03T12:46:57.348Z,45.72
2019-04-03T12:49:30.185Z,45.96
2019-04-03T12:52:04.541Z,45.53
2019-04-03T12:54:38.738Z,45.40
2019-04-03T12:57:12.364Z,45.62
2019-04-03T12:59:47.629Z,46.40
2019-04-03T13:02:21.594Z,47.79
2019-04-03T13:04:54.991Z,46.01
2019-04-03T13:07:30.595Z,46.14
2019-04-03T13:10:04.632Z,45.77
2019-04-03T13:12:41.617Z,46.43
2019-04-03T13:15:15.879Z,45.53
2019-04-03T13:17:49.098Z,45.92
2019-04-03T13:20:23.417Z,44.83
2019-04-03T13:23:03.008Z,45.09
2019-04-03T13:25:36.867Z,44.64
2019-04-03T13:28:12.155Z,44.50
2019-04-03T13:30:47.458Z,44.85
2019-04-03T13:33:21.140Z,44.85
2019-04-03T13:35:54.388Z,46.43
2019-04-03T13:38:28.929Z,44.89
2019-04-03T13:41:05.194Z,44.64
2019-04-03T13:43:37.917Z,45.19
2019-04-03T13:46:11.239Z,45.30
2019-04-03T13:48:45.239Z,44.02
2019-04-03T13:51:20.011Z,44.60
2019-04-03T13:53:53.888Z,44.21
2019-04-03T13:56:27.667Z,43.93
2019-04-03T13:59:02.669Z,43.70
2019-04-03T14:01:40.255Z,43.33
2019-04-03T14:04:15.901Z,43.31
2019-04-03T14:06:49.441Z,43.64
2019-04-03T14:09:23.229Z,43.63
2019-04-03T14:11:55.947Z,43.21
2019-04-03T14:14:30.904Z,43.53
2019-04-03T14:17:06.965Z,43.46
2019-04-03T14:19:46.106Z,43.80
2019-04-03T14:22:17.007Z,44.01
2019-04-03T14:24:52.588Z,43.42
2019-04-03T14:27:30.701Z,43.44
2019-04-03T14:30:10.262Z,43.13
2019-04-03T14:32:38.023Z,42.79
2019-04-03T14:35:41.220Z,44.07
2019-04-03T14:37:47.681Z,42.54
2019-04-03T14:40:23.005Z,43.46
2019-04-03T14:43:00.031Z,42.57
2019-04-03T14:45:33.255Z,42.43
2019-04-03T14:48:07.254Z,42.95
2019-04-03T14:50:41.132Z,42.81
2019-04-03T14:53:14.125Z,42.28
2019-04-03T14:55:49.869Z,42.55
2019-04-03T14:58:25.806Z,42.00
2019-04-03T15:00:56.858Z,42.33
2019-04-03T15:03:30.274Z,42.92
2019-04-03T15:06:06.096Z,43.37
2019-04-03T15:08:39.144Z,43.91
2019-04-03T15:11:12.473Z,44.48
2019-04-03T15:13:45.604Z,44.27
2019-04-03T15:16:19.789Z,43.71
2019-04-03T15:18:53.531Z,44.36
2019-04-03T15:21:28.342Z,42.72
2019-04-03T15:24:02.125Z,43.57
2019-04-03T15:26:35.127Z,45.60
2019-04-03T15:29:08.461Z,45.49
2019-04-03T15:31:43.190Z,45.22
2019-04-03T15:34:18.473Z,44.81
2019-04-03T15:36:52.886Z,45.01
2019-04-03T15:39:26.215Z,45.86
2019-04-03T15:42:00.967Z,45.67
2019-04-03T15:44:38.614Z,46.50
2019-04-03T15:47:12.348Z,45.74
2019-04-03T15:49:46.705Z,45.88
2019-04-03T15:52:21.647Z,45.58
2019-04-03T15:54:58.452Z,45.39
2019-04-03T15:57:32.098Z,44.65
2019-04-03T16:00:05.790Z,45.11
2019-04-03T16:02:39.239Z,44.51
2019-04-03T16:05:13.395Z,44.99
2019-04-03T16:07:48.287Z,44.72
2019-04-03T16:10:23.996Z,43.88
2019-04-03T16:12:57.763Z,45.39
2019-04-03T16:15:31.306Z,44.12
2019-04-03T16:18:06.302Z,44.79
2019-04-03T16:20:39.701Z,45.04
2019-04-03T16:23:12.845Z,45.71
2019-04-03T16:25:49.816Z,45.84
2019-04-03T16:28:23.531Z,45.90
2019-04-03T16:30:56.012Z,45.08
2019-04-03T16:33:30.453Z,45.92
2019-04-03T16:36:03.251Z,45.18
2019-04-03T16:38:37.105Z,45.45
2019-04-03T16:41:13.856Z,45.67
2019-04-03T16:43:47.406Z,45.34
2019-04-03T16:46:22.804Z,45.20
2019-04-03T16:48:57.830Z,44.98
2019-04-03T16:51:33.359Z,44.78
2019-04-03T16:54:10.400Z,45.09
2019-04-03T16:56:46.982Z,45.24
2019-04-03T16:59:22.069Z,45.46
2019-04-03T17:01:55.629Z,46.06
2019-04-03T17:04:33.042Z,46.10
2019-04-03T17:07:38.442Z,46.05
2019-04-03T17:10:12.987Z,46.04
2019-04-03T17:12:49.573Z,46.30
2019-04-03T17:15:22.756Z,46.80
2019-04-03T17:17:58.646Z,47.10
2019-04-03T17:20:33.320Z,47.80
2019-04-03T17:23:07.807Z,47.85
2019-04-03T17:25:47.579Z,47.75
2019-04-03T17:28:19.959Z,48.06
2019-04-03T17:30:53.523Z,48.46
2019-04-03T17:33:29.081Z,48.50
2019-04-03T17:36:04.086Z,49.66
2019-04-03T17:38:38.974Z,49.20
2019-04-03T17:41:13.600Z,48.83
2019-04-03T17:43:48.666Z,49.77
2019-04-03T17:46:22.533Z,49.51
2019-04-03T17:48:57.266Z,49.82
2019-04-03T17:51:33.703Z,50.54
2019-04-03T17:54:09.129Z,50.92
2019-04-03T17:56:43.582Z,50.98
2019-04-03T17:59:18.179Z,51.30
2019-04-03T18:01:54.213Z,51.33
2019-04-03T18:04:30.765Z,51.24
2019-04-03T18:07:03.861Z,50.69
2019-04-03T18:09:37.461Z,52.16
2019-04-03T18:12:12.823Z,52.15
2019-04-03T18:14:47.183Z,52.38
2019-04-03T18:17:21.136Z,52.64
2019-04-03T18:19:56.150Z,52.78
2019-04-03T18:22:29.908Z,53.26
2019-04-03T18:25:03.874Z,53.52
2019-04-03T18:27:38.122Z,52.88
2019-04-03T18:30:12.908Z,58.42
2019-04-03T18:32:47.589Z,61.83
2019-04-03T18:35:20.467Z,63.75
2019-04-03T18:37:54.023Z,66.43
2019-04-03T18:40:26.993Z,68.67
2019-04-03T18:43:01.880Z,70.51
2019-04-03T18:45:35.970Z,72.33
2019-04-03T18:48:09.843Z,74.56
2019-04-03T18:50:42.558Z,75.51
2019-04-03T18:53:16.711Z,75.98
2019-04-03T18:55:53.003Z,76.55
2019-04-03T18:58:30.162Z,77.52
2019-04-03T19:01:06.963Z,78.77
2019-04-03T19:03:40.641Z,78.98
2019-04-03T19:06:14.525Z,79.03
2019-04-03T19:08:50.016Z,79.61
2019-04-03T19:11:22.684Z,80.08
2019-04-03T19:13:58.787Z,80.42
2019-04-03T19:16:43.630Z,81.00
2019-04-03T19:19:08.497Z,81.34
2019-04-03T19:21:42.269Z,81.16
2019-04-03T19:24:15.848Z,81.19
2019-04-03T19:26:51.160Z,82.04
2019-04-03T19:29:29.499Z,82.42
2019-04-03T19:32:06.339Z,82.51
2019-04-03T19:34:39.378Z,82.58
2019-04-03T19:37:13.649Z,83.20
2019-04-03T19:39:50.570Z,83.32
2019-04-03T19:42:24.179Z,83.55
2019-04-03T19:44:57.974Z,83.59
2019-04-03T19:47:33.169Z,84.29
2019-04-03T19:50:09.195Z,84.13
2019-04-03T19:52:42.889Z,84.14
2019-04-03T19:55:19.324Z,84.13
2019-04-03T19:57:57.473Z,84.65
2019-04-03T20:00:33.074Z,84.49
2019-04-03T20:03:08.571Z,85.21
2019-04-03T20:05:44.061Z,85.07
2019-04-03T20:08:18.460Z,84.91
2019-04-03T20:10:52.387Z,84.91
2019-04-03T20:13:30.217Z,85.33
2019-04-03T20:16:04.726Z,85.54
2019-04-03T20:18:40.298Z,85.91
2019-04-03T20:21:15.768Z,86.22
2019-04-03T20:24:03.112Z,86.30
2019-04-03T20:26:46.638Z,86.33
2019-04-03T20:29:21.777Z,86.14
2019-04-03T20:31:55.423Z,86.16
2019-04-03T20:34:33.132Z,86.49
2019-04-03T20:37:06.869Z,87.09
2019-04-03T20:39:41.035Z,87.40
2019-04-03T20:42:14.718Z,87.47
2019-04-03T20:44:52.285Z,87.81
2019-04-03T20:47:27.463Z,87.64
2019-04-03T20:50:01.476Z,87.94
2019-04-03T20:52:38.047Z,87.77
2019-04-03T20:55:13.443Z,88.21
2019-04-03T20:57:55.504Z,88.16
2019-04-03T21:00:23.937Z,88.30
2019-04-03T21:02:57.290Z,88.96
2019-04-03T21:05:30.522Z,89.30
2019-04-03T21:08:04.738Z,89.65
2019-04-03T21:10:40.098Z,89.94
2019-04-03T21:13:15.394Z,89.73
2019-04-03T21:15:52.394Z,90.00
2019-04-03T21:18:26.796Z,90.44
2019-04-03T21:21:03.909Z,90.57
2019-04-03T21:23:37.037Z,90.58
2019-04-03T21:26:11.742Z,91.31
2019-04-03T21:28:45.431Z,91.45
2019-04-03T21:31:22.098Z,91.54
2019-04-03T21:33:55.436Z,91.32
2019-04-03T21:36:29.644Z,91.92
2019-04-03T21:39:08.197Z,92.54
2019-04-03T21:41:44.123Z,92.59
2019-04-03T21:44:19.935Z,92.71
2019-04-03T21:46:55.536Z,92.44
2019-04-03T21:49:30.570Z,93.83
2019-04-03T21:52:04.182Z,93.75
2019-04-03T21:54:38.992Z,94.02
2019-04-03T21:57:12.395Z,94.07
2019-04-03T21:59:47.367Z,94.88
2019-04-03T22:02:21.232Z,94.48
2019-04-03T22:04:54.739Z,94.40
2019-04-03T22:07:28.211Z,94.77
2019-04-03T22:10:02.645Z,94.71
2019-04-03T22:12:36.696Z,95.98
2019-04-03T22:15:13.553Z,95.72
2019-04-03T22:17:47.416Z,96.31
2019-04-03T22:20:21.178Z,96.47
2019-04-03T22:22:54.854Z,96.74
2019-04-03T22:25:28.138Z,96.01
2019-04-03T22:28:00.501Z,96.54
2019-04-03T22:30:33.553Z,96.35
2019-04-03T22:33:06.871Z,96.73
2019-04-03T22:35:42.479Z,96.36
2019-04-03T22:38:15.745Z,96.51
2019-04-03T22:40:48.781Z,96.50
2019-04-03T22:43:25.296Z,96.18
2019-04-03T22:45:58.704Z,96.15
2019-04-03T22:48:33.454Z,95.41
2019-04-03T22:51:09.978Z,94.88
2019-04-03T22:53:42.704Z,94.81
2019-04-03T22:56:16.942Z,95.15
2019-04-03T22:58:52.965Z,94.95
2019-04-03T23:01:29.568Z,95.38
2019-04-03T23:04:04.965Z,94.90
2019-04-03T23:06:39.363Z,94.69
2019-04-03T23:09:14.391Z,94.55
2019-04-03T23:11:50.528Z,94.92
2019-04-03T23:14:26.009Z,95.37
2019-04-03T23:17:00.330Z,95.17
2019-04-03T23:19:34.283Z,95.36
2019-04-03T23:22:07.777Z,95.37
2019-04-03T23:24:42.542Z,95.37
2019-04-03T23:27:15.615Z,95.91
2019-04-03T23:29:48.852Z,95.47
2019-04-03T23:32:21.733Z,94.75
2019-04-03T23:34:54.942Z,94.70
2019-04-03T23:37:30.588Z,94.44
2019-04-03T23:40:04.114Z,94.82
2019-04-03T23:42:39.568Z,94.58
2019-04-03T23:45:13.515Z,95.19
2019-04-03T23:47:48.238Z,94.82
2019-04-03T23:50:21.909Z,94.29
2019-04-03T23:52:56.293Z,94.89
2019-04-03T23:55:29.960Z,94.64
2019-04-03T23:58:02.721Z,94.36
